KILM/ILM METAR and TAF weather

Enter ICAO airport designator
Station Type Date Time Source
KILM METAR 2019/11/22 00:53 UTC NOAA

KILM 220053Z 00000KT 10SM CLR 09/06 A3023 RMK AO2 SLP238 T00940056


Station Type Date Time Source
KILM Decoded METAR 2019/11/22 00:53 UTC NOAA

WILMINGTON INT'L AIRPORT, NC, United States (KILM) 34-16N 077-54W 9M
Nov 21, 2019 - 07:53 PM EST / 2019.11.22 0053 UTC
Wind: Calm:0
Visibility: 10 mile(s):0
Sky conditions: clear
Temperature: 48.9 F (9.4 C)
Dew Point: 42.1 F (5.6 C)
Relative Humidity: 77%
Pressure (altimeter): 30.23 in. Hg (1023 hPa)
ob: KILM 220053Z 00000KT 10SM CLR 09/06 A3023 RMK AO2 SLP238 T00940056
cycle: 1

Station Type Date Time Source
KILM TAF 2019/11/21 18:22 UTC NOAA

TAF KILM 211720Z 2118/2218 04004KT P6SM SCT250
FM221400 23008KT P6SM SCT250

Example: see airport list